createdAt,value
2016-04-29T00:00:21.970Z,1010.02
2016-04-29T00:01:21.458Z,1010.03
2016-04-29T00:02:21.445Z,1010.04
2016-04-29T00:03:21.447Z,1010
2016-04-29T00:04:21.450Z,1010
2016-04-29T00:05:21.234Z,1010
2016-04-29T00:06:21.440Z,1009.99
2016-04-29T00:07:21.239Z,1009.97
2016-04-29T00:08:21.429Z,1009.94
2016-04-29T00:09:21.432Z,1009.92
2016-04-29T00:10:21.419Z,1009.94
2016-04-29T00:11:21.219Z,1009.91
2016-04-29T00:12:21.425Z,1009.96
2016-04-29T00:13:21.208Z,1009.95
2016-04-29T00:14:21.241Z,1009.93
2016-04-29T00:15:21.487Z,1009.93
2016-04-29T00:16:21.295Z,1009.9
2016-04-29T00:17:21.541Z,1009.91
2016-04-29T00:18:21.567Z,1009.87
2016-04-29T00:19:21.617Z,1009.84
2016-04-29T00:20:21.618Z,1009.85
2016-04-29T00:21:21.619Z,1009.83
2016-04-29T00:22:21.434Z,1009.77
2016-04-29T00:23:21.653Z,1009.8
2016-04-29T00:24:21.667Z,1009.77
2016-04-29T00:25:21.659Z,1009.76
2016-04-29T00:26:21.463Z,1009.78
2016-04-29T00:27:21.455Z,1009.75
2016-04-29T00:28:21.666Z,1009.77
2016-04-29T00:29:21.454Z,1009.74
2016-04-29T00:30:21.662Z,1009.75
2016-04-29T00:31:21.650Z,1009.71
2016-04-29T00:32:21.452Z,1009.69
2016-04-29T00:33:21.659Z,1009.69
2016-04-29T00:34:21.461Z,1009.65
2016-04-29T00:35:21.652Z,1009.67
2016-04-29T00:36:21.453Z,1009.68
2016-04-29T00:37:21.643Z,1009.66
2016-04-29T00:38:21.443Z,1009.63
2016-04-29T00:39:21.447Z,1009.64
2016-04-29T00:40:21.638Z,1009.63
2016-04-29T00:41:21.640Z,1009.63
2016-04-29T00:42:21.643Z,1009.62
2016-04-29T00:43:21.631Z,1009.64
2016-04-29T18:19:14.156Z,1011.02
2016-04-29T18:20:14.143Z,1011.03
2016-04-29T18:21:14.350Z,1011.04
2016-04-29T18:22:14.150Z,1011.02
2016-04-29T18:23:14.356Z,1011.04
2016-04-29T18:24:14.343Z,1011.02
2016-04-29T18:25:14.346Z,1011.02
2016-04-29T22:35:31.809Z,1010.94
2016-04-29T22:36:31.795Z,1010.99
2016-04-29T22:37:31.798Z,1010.97
2016-04-29T22:38:31.801Z,1010.96
2016-04-29T22:39:31.585Z,1010.95
2016-04-29T22:40:31.792Z,1010.97
2016-04-29T22:41:31.591Z,1011
2016-04-29T22:42:31.781Z,1011
2016-04-29T22:43:31.580Z,1011.01
2016-04-29T22:44:31.802Z,1010.97
2016-04-29T22:45:31.569Z,1010.98
2016-04-29T22:46:31.572Z,1010.97
2016-04-29T22:47:31.561Z,1010.98
2016-04-29T22:48:31.766Z,1010.97
2016-04-29T22:49:31.565Z,1010.98
2016-04-29T22:50:31.755Z,1010.96
2016-04-29T22:51:31.555Z,1010.96
2016-04-29T22:52:31.557Z,1010.96
2016-04-29T22:53:31.763Z,1010.94
2016-04-29T22:54:31.548Z,1010.97
2016-04-29T22:55:31.550Z,1010.92
2016-04-29T22:56:31.552Z,1010.95
2016-04-29T22:57:31.744Z,1010.94
2016-04-29T22:58:31.527Z,1010.96
2016-04-29T22:59:31.546Z,1010.96
2016-04-29T23:00:31.533Z,1010.95
2016-04-29T23:01:31.738Z,1010.9
2016-04-29T23:02:31.725Z,1010.91
2016-04-29T23:03:31.743Z,1010.88
2016-04-29T23:04:31.527Z,1010.91
2016-04-29T23:05:31.718Z,1010.91
2016-04-29T23:06:31.721Z,1010.91
2016-04-29T23:07:31.520Z,1010.89
2016-04-29T23:08:31.522Z,1010.88
2016-04-29T23:09:31.713Z,1010.87
2016-04-29T23:10:31.716Z,1010.87
2016-04-29T23:11:31.703Z,1010.87
2016-04-29T23:12:31.503Z,1010.88
2016-04-29T23:13:31.506Z,1010.87
2016-04-29T23:14:31.492Z,1010.91
2016-04-29T23:15:31.698Z,1010.88
2016-04-29T23:16:31.482Z,1010.9
2016-04-29T23:17:31.687Z,1010.89
2016-04-29T23:18:31.487Z,1010.86
2016-04-29T23:19:31.692Z,1010.87
2016-04-29T23:20:31.477Z,1010.87
2016-04-29T23:21:31.683Z,1010.89
2016-04-29T23:22:31.685Z,1010.91
2016-04-29T23:23:31.673Z,1010.91
2016-04-29T23:24:31.472Z,1010.89
2016-04-29T23:25:31.458Z,1010.9
2016-04-29T23:26:31.665Z,1010.9
2016-04-29T23:27:31.668Z,1010.92
2016-04-29T23:28:31.452Z,1010.94
2016-04-29T23:29:31.658Z,1010.94
2016-04-29T23:30:31.660Z,1010.95
2016-04-29T23:31:31.647Z,1010.93
2016-04-29T23:32:31.650Z,1010.9
2016-04-29T23:33:31.652Z,1010.88
2016-04-29T23:34:31.640Z,1010.87
2016-04-29T23:35:31.440Z,1010.87
2016-04-29T23:36:31.645Z,1010.83
2016-04-29T23:37:31.648Z,1010.78
2016-04-29T23:38:31.634Z,1010.77
2016-04-29T23:39:31.637Z,1010.78
2016-04-29T23:40:31.624Z,1010.79
2016-04-29T23:41:31.423Z,1010.86
2016-04-29T23:42:31.629Z,1010.86
2016-04-29T23:43:31.414Z,1010.81
2016-04-29T23:44:31.620Z,1010.93
2016-04-29T23:45:31.419Z,1010.87
2016-04-29T23:46:31.609Z,1010.85
2016-04-29T23:47:31.612Z,1010.85
2016-04-29T23:48:31.600Z,1010.88
2016-04-29T23:49:31.399Z,1010.89
2016-04-29T23:50:31.401Z,1010.86
2016-04-29T23:51:31.592Z,1010.95
2016-04-29T23:52:31.594Z,1010.96
2016-04-29T23:53:31.597Z,1010.95
2016-04-29T23:54:31.397Z,1010.94
2016-04-29T23:55:31.586Z,1010.92
2016-04-29T23:56:31.386Z,1010.87
2016-04-29T23:57:31.576Z,1010.86
2016-04-29T23:58:31.579Z,1010.89
2016-04-29T23:59:31.597Z,1010.91
